sensor_id;sensor_type;location;lat;lon;timestamp;P1;durP1;ratioP1;P2;durP2;ratioP2
65613;SDS011;52283;49.292;10.572;2024-03-23T00:52:33;13.10;;;8.52;;
65613;SDS011;52283;49.292;10.572;2024-03-23T00:54:58;12.55;;;8.35;;
65613;SDS011;52283;49.292;10.572;2024-03-23T00:57:24;10.80;;;6.95;;
65613;SDS011;52283;49.292;10.572;2024-03-23T00:59:50;8.88;;;6.57;;
65613;SDS011;52283;49.292;10.572;2024-03-23T01:02:16;9.65;;;6.78;;
65613;SDS011;52283;49.292;10.572;2024-03-23T01:04:42;9.20;;;5.95;;
65613;SDS011;52283;49.292;10.572;2024-03-23T01:07:08;12.95;;;6.13;;
65613;SDS011;52283;49.292;10.572;2024-03-23T01:09:35;10.93;;;6.63;;
65613;SDS011;52283;49.292;10.572;2024-03-23T01:12:04;8.30;;;5.15;;
65613;SDS011;52283;49.292;10.572;2024-03-23T01:14:29;9.18;;;6.07;;
65613;SDS011;52283;49.292;10.572;2024-03-23T01:16:56;9.85;;;5.60;;
65613;SDS011;52283;49.292;10.572;2024-03-23T01:19:21;7.63;;;4.70;;
65613;SDS011;52283;49.292;10.572;2024-03-23T01:21:48;9.70;;;6.03;;
65613;SDS011;52283;49.292;10.572;2024-03-23T01:24:14;11.70;;;5.45;;
65613;SDS011;52283;49.292;10.572;2024-03-23T01:26:42;7.03;;;5.20;;
65613;SDS011;52283;49.292;10.572;2024-03-23T01:29:07;9.68;;;5.20;;
65613;SDS011;52283;49.292;10.572;2024-03-23T01:31:34;6.53;;;4.70;;
65613;SDS011;52283;49.292;10.572;2024-03-23T01:33:59;7.00;;;5.53;;
65613;SDS011;52283;49.292;10.572;2024-03-23T01:36:26;9.07;;;5.22;;
65613;SDS011;52283;49.292;10.572;2024-03-23T01:38:51;8.95;;;5.45;;
65613;SDS011;52283;49.292;10.572;2024-03-23T01:41:18;12.55;;;5.38;;
65613;SDS011;52283;49.292;10.572;2024-03-23T01:43:45;6.53;;;4.85;;
65613;SDS011;52283;49.292;10.572;2024-03-23T01:46:12;7.90;;;5.18;;
65613;SDS011;52283;49.292;10.572;2024-03-23T01:48:38;7.38;;;5.22;;
65613;SDS011;52283;49.292;10.572;2024-03-23T01:51:04;6.82;;;4.32;;
65613;SDS011;52283;49.292;10.572;2024-03-23T01:53:30;8.18;;;4.72;;
65613;SDS011;52283;49.292;10.572;2024-03-23T01:55:57;8.50;;;5.68;;
65613;SDS011;52283;49.292;10.572;2024-03-23T01:58:22;7.57;;;5.00;;
65613;SDS011;52283;49.292;10.572;2024-03-23T02:00:50;7.90;;;5.65;;
65613;SDS011;52283;49.292;10.572;2024-03-23T02:03:22;9.38;;;5.50;;
65613;SDS011;52283;49.292;10.572;2024-03-23T02:05:49;11.25;;;4.70;;
65613;SDS011;52283;49.292;10.572;2024-03-23T02:08:15;7.53;;;5.38;;
65613;SDS011;52283;49.292;10.572;2024-03-23T02:10:43;6.72;;;4.40;;
65613;SDS011;52283;49.292;10.572;2024-03-23T02:13:09;4.40;;;3.97;;
65613;SDS011;52283;49.292;10.572;2024-03-23T02:15:35;6.53;;;4.85;;
65613;SDS011;52283;49.292;10.572;2024-03-23T02:18:02;5.13;;;3.50;;
65613;SDS011;52283;49.292;10.572;2024-03-23T02:20:29;6.45;;;4.32;;
65613;SDS011;52283;49.292;10.572;2024-03-23T02:22:55;11.45;;;6.40;;
65613;SDS011;52283;49.292;10.572;2024-03-23T02:25:22;6.60;;;5.65;;
65613;SDS011;52283;49.292;10.572;2024-03-23T02:27:47;8.00;;;6.05;;
65613;SDS011;52283;49.292;10.572;2024-03-23T02:30:14;9.45;;;5.20;;
65613;SDS011;52283;49.292;10.572;2024-03-23T02:32:40;6.72;;;4.00;;
65613;SDS011;52283;49.292;10.572;2024-03-23T02:35:06;4.72;;;3.72;;
65613;SDS011;52283;49.292;10.572;2024-03-23T02:37:32;6.53;;;3.22;;
65613;SDS011;52283;49.292;10.572;2024-03-23T02:40:00;7.75;;;3.45;;
65613;SDS011;52283;49.292;10.572;2024-03-23T02:42:25;4.45;;;3.38;;
65613;SDS011;52283;49.292;10.572;2024-03-23T02:44:52;3.50;;;3.20;;
65613;SDS011;52283;49.292;10.572;2024-03-23T02:47:17;4.90;;;3.28;;
65613;SDS011;52283;49.292;10.572;2024-03-23T02:49:44;4.07;;;3.05;;
65613;SDS011;52283;49.292;10.572;2024-03-23T02:52:09;8.35;;;3.50;;
65613;SDS011;52283;49.292;10.572;2024-03-23T02:54:35;3.15;;;2.78;;
65613;SDS011;52283;49.292;10.572;2024-03-23T02:57:03;5.00;;;4.07;;
65613;SDS011;52283;49.292;10.572;2024-03-23T02:59:29;5.20;;;3.78;;
65613;SDS011;52283;49.292;10.572;2024-03-23T03:01:55;3.45;;;2.67;;
65613;SDS011;52283;49.292;10.572;2024-03-23T03:04:21;5.22;;;2.92;;
65613;SDS011;52283;49.292;10.572;2024-03-23T03:06:47;4.82;;;3.28;;
65613;SDS011;52283;49.292;10.572;2024-03-23T03:09:14;3.22;;;2.67;;
65613;SDS011;52283;49.292;10.572;2024-03-23T03:11:40;7.20;;;3.03;;
65613;SDS011;52283;49.292;10.572;2024-03-23T03:14:08;4.50;;;2.55;;
65613;SDS011;52283;49.292;10.572;2024-03-23T03:16:33;4.00;;;2.75;;
65613;SDS011;52283;49.292;10.572;2024-03-23T03:19:00;5.50;;;2.75;;
65613;SDS011;52283;49.292;10.572;2024-03-23T03:21:26;5.75;;;3.40;;
65613;SDS011;52283;49.292;10.572;2024-03-23T03:23:53;6.20;;;2.53;;
65613;SDS011;52283;49.292;10.572;2024-03-23T03:26:19;3.88;;;2.97;;
65613;SDS011;52283;49.292;10.572;2024-03-23T03:28:45;4.78;;;3.30;;
65613;SDS011;52283;49.292;10.572;2024-03-23T03:31:15;3.97;;;2.70;;
65613;SDS011;52283;49.292;10.572;2024-03-23T03:33:41;5.00;;;2.83;;
65613;SDS011;52283;49.292;10.572;2024-03-23T03:36:07;9.85;;;3.35;;
65613;SDS011;52283;49.292;10.572;2024-03-23T03:38:33;4.07;;;3.30;;
65613;SDS011;52283;49.292;10.572;2024-03-23T03:41:00;3.13;;;2.80;;
65613;SDS011;52283;49.292;10.572;2024-03-23T03:43:26;4.20;;;3.03;;
65613;SDS011;52283;49.292;10.572;2024-03-23T03:45:52;8.10;;;3.65;;
65613;SDS011;52283;49.292;10.572;2024-03-23T03:48:20;5.43;;;3.08;;
65613;SDS011;52283;49.292;10.572;2024-03-23T03:50:45;4.95;;;3.00;;
65613;SDS011;52283;49.292;10.572;2024-03-23T03:53:12;4.70;;;3.22;;
65613;SDS011;52283;49.292;10.572;2024-03-23T03:55:37;6.13;;;3.35;;
65613;SDS011;52283;49.292;10.572;2024-03-23T03:58:04;3.28;;;2.70;;
65613;SDS011;52283;49.292;10.572;2024-03-23T04:00:29;3.13;;;2.78;;
65613;SDS011;52283;49.292;10.572;2024-03-23T04:02:56;7.03;;;3.15;;
65613;SDS011;52283;49.292;10.572;2024-03-23T04:05:23;4.03;;;3.03;;
65613;SDS011;52283;49.292;10.572;2024-03-23T04:07:49;4.53;;;3.08;;
65613;SDS011;52283;49.292;10.572;2024-03-23T04:10:16;4.55;;;2.90;;
65613;SDS011;52283;49.292;10.572;2024-03-23T04:12:41;4.03;;;3.53;;
65613;SDS011;52283;49.292;10.572;2024-03-23T04:15:09;4.57;;;3.58;;
65613;SDS011;52283;49.292;10.572;2024-03-23T04:17:35;4.30;;;2.70;;
65613;SDS011;52283;49.292;10.572;2024-03-23T04:20:02;5.43;;;2.55;;
65613;SDS011;52283;49.292;10.572;2024-03-23T04:22:30;4.90;;;3.15;;
65613;SDS011;52283;49.292;10.572;2024-03-23T04:24:56;7.55;;;3.05;;
65613;SDS011;52283;49.292;10.572;2024-03-23T04:27:22;6.85;;;3.03;;
65613;SDS011;52283;49.292;10.572;2024-03-23T04:29:49;5.18;;;3.42;;
65613;SDS011;52283;49.292;10.572;2024-03-23T04:32:14;6.00;;;3.10;;
65613;SDS011;52283;49.292;10.572;2024-03-23T04:34:41;5.72;;;3.65;;
65613;SDS011;52283;49.292;10.572;2024-03-23T04:37:08;6.50;;;3.33;;
65613;SDS011;52283;49.292;10.572;2024-03-23T04:39:36;7.07;;;3.67;;
65613;SDS011;52283;49.292;10.572;2024-03-23T04:42:04;8.27;;;3.50;;
65613;SDS011;52283;49.292;10.572;2024-03-23T04:44:31;3.83;;;3.35;;
65613;SDS011;52283;49.292;10.572;2024-03-23T04:46:57;5.22;;;3.10;;
65613;SDS011;52283;49.292;10.572;2024-03-23T04:49:24;4.63;;;3.17;;
65613;SDS011;52283;49.292;10.572;2024-03-23T04:51:50;4.57;;;2.88;;
65613;SDS011;52283;49.292;10.572;2024-03-23T04:54:17;3.70;;;2.90;;
65613;SDS011;52283;49.292;10.572;2024-03-23T04:56:45;3.63;;;2.80;;
65613;SDS011;52283;49.292;10.572;2024-03-23T04:59:11;6.68;;;3.20;;
65613;SDS011;52283;49.292;10.572;2024-03-23T05:01:37;5.50;;;3.38;;
65613;SDS011;52283;49.292;10.572;2024-03-23T05:04:07;8.32;;;2.90;;
65613;SDS011;52283;49.292;10.572;2024-03-23T05:06:32;4.43;;;2.97;;
65613;SDS011;52283;49.292;10.572;2024-03-23T05:08:59;5.13;;;2.97;;
65613;SDS011;52283;49.292;10.572;2024-03-23T05:11:25;9.35;;;3.40;;
65613;SDS011;52283;49.292;10.572;2024-03-23T05:13:52;7.18;;;3.67;;
65613;SDS011;52283;49.292;10.572;2024-03-23T05:16:18;4.00;;;3.10;;
65613;SDS011;52283;49.292;10.572;2024-03-23T05:18:44;4.50;;;2.88;;
65613;SDS011;52283;49.292;10.572;2024-03-23T05:21:10;5.95;;;3.17;;
65613;SDS011;52283;49.292;10.572;2024-03-23T05:23:37;3.78;;;3.10;;
65613;SDS011;52283;49.292;10.572;2024-03-23T05:26:03;5.63;;;2.97;;
65613;SDS011;52283;49.292;10.572;2024-03-23T05:28:29;4.85;;;2.70;;
65613;SDS011;52283;49.292;10.572;2024-03-23T05:30:56;4.93;;;3.88;;
65613;SDS011;52283;49.292;10.572;2024-03-23T05:33:23;4.75;;;2.92;;
65613;SDS011;52283;49.292;10.572;2024-03-23T05:35:55;4.95;;;2.75;;
65613;SDS011;52283;49.292;10.572;2024-03-23T05:38:22;5.20;;;2.65;;
65613;SDS011;52283;49.292;10.572;2024-03-23T05:40:52;3.63;;;2.42;;
65613;SDS011;52283;49.292;10.572;2024-03-23T05:43:19;8.13;;;3.05;;
65613;SDS011;52283;49.292;10.572;2024-03-23T05:45:45;4.15;;;2.40;;
65613;SDS011;52283;49.292;10.572;2024-03-23T05:48:13;4.60;;;2.63;;
65613;SDS011;52283;49.292;10.572;2024-03-23T05:50:38;6.65;;;3.00;;
65613;SDS011;52283;49.292;10.572;2024-03-23T05:53:05;7.07;;;3.75;;
65613;SDS011;52283;49.292;10.572;2024-03-23T05:55:30;7.63;;;4.05;;
65613;SDS011;52283;49.292;10.572;2024-03-23T05:57:57;8.25;;;4.70;;
65613;SDS011;52283;49.292;10.572;2024-03-23T06:00:22;8.23;;;5.82;;
65613;SDS011;52283;49.292;10.572;2024-03-23T06:02:51;11.90;;;7.00;;
65613;SDS011;52283;49.292;10.572;2024-03-23T06:05:18;13.68;;;7.43;;
65613;SDS011;52283;49.292;10.572;2024-03-23T06:07:44;13.27;;;7.82;;
65613;SDS011;52283;49.292;10.572;2024-03-23T06:10:10;13.48;;;8.02;;
65613;SDS011;52283;49.292;10.572;2024-03-23T06:12:36;15.82;;;8.00;;
65613;SDS011;52283;49.292;10.572;2024-03-23T06:15:03;15.13;;;9.02;;
65613;SDS011;52283;49.292;10.572;2024-03-23T06:17:29;14.55;;;8.20;;
65613;SDS011;52283;49.292;10.572;2024-03-23T06:19:56;15.15;;;9.10;;
65613;SDS011;52283;49.292;10.572;2024-03-23T06:22:23;15.32;;;9.73;;
65613;SDS011;52283;49.292;10.572;2024-03-23T06:24:50;16.25;;;9.60;;
65613;SDS011;52283;49.292;10.572;2024-03-23T06:27:15;12.50;;;9.18;;
65613;SDS011;52283;49.292;10.572;2024-03-23T06:29:43;20.00;;;9.90;;
65613;SDS011;52283;49.292;10.572;2024-03-23T06:32:08;18.60;;;10.90;;
65613;SDS011;52283;49.292;10.572;2024-03-23T06:34:35;13.52;;;9.07;;
65613;SDS011;52283;49.292;10.572;2024-03-23T06:37:00;17.02;;;9.43;;
65613;SDS011;52283;49.292;10.572;2024-03-23T06:39:29;15.15;;;9.05;;
65613;SDS011;52283;49.292;10.572;2024-03-23T06:41:54;12.55;;;7.50;;
65613;SDS011;52283;49.292;10.572;2024-03-23T06:44:21;12.43;;;6.82;;
65613;SDS011;52283;49.292;10.572;2024-03-23T06:46:47;10.60;;;5.75;;
65613;SDS011;52283;49.292;10.572;2024-03-23T06:49:14;12.45;;;6.40;;
65613;SDS011;52283;49.292;10.572;2024-03-23T06:51:40;7.78;;;5.45;;
65613;SDS011;52283;49.292;10.572;2024-03-23T06:54:06;11.68;;;6.38;;
65613;SDS011;52283;49.292;10.572;2024-03-23T06:56:33;9.18;;;5.38;;
65613;SDS011;52283;49.292;10.572;2024-03-23T06:59:00;8.10;;;5.20;;
65613;SDS011;52283;49.292;10.572;2024-03-23T07:01:25;8.57;;;5.65;;
65613;SDS011;52283;49.292;10.572;2024-03-23T07:03:53;14.23;;;6.10;;
65613;SDS011;52283;49.292;10.572;2024-03-23T07:06:19;8.43;;;5.35;;
65613;SDS011;52283;49.292;10.572;2024-03-23T07:08:45;11.60;;;4.82;;
65613;SDS011;52283;49.292;10.572;2024-03-23T07:11:11;8.90;;;5.22;;
65613;SDS011;52283;49.292;10.572;2024-03-23T07:13:38;11.75;;;6.13;;
65613;SDS011;52283;49.292;10.572;2024-03-23T07:16:04;9.50;;;5.10;;
65613;SDS011;52283;49.292;10.572;2024-03-23T07:18:31;9.57;;;4.65;;
65613;SDS011;52283;49.292;10.572;2024-03-23T07:20:56;9.77;;;5.78;;
65613;SDS011;52283;49.292;10.572;2024-03-23T07:23:23;7.07;;;4.10;;
65613;SDS011;52283;49.292;10.572;2024-03-23T07:25:58;10.13;;;4.45;;
65613;SDS011;52283;49.292;10.572;2024-03-23T07:28:25;8.23;;;4.20;;
65613;SDS011;52283;49.292;10.572;2024-03-23T07:31:05;8.25;;;4.57;;
65613;SDS011;52283;49.292;10.572;2024-03-23T07:33:33;7.60;;;4.75;;
65613;SDS011;52283;49.292;10.572;2024-03-23T07:35:59;7.45;;;4.90;;
65613;SDS011;52283;49.292;10.572;2024-03-23T07:38:27;6.60;;;4.05;;
65613;SDS011;52283;49.292;10.572;2024-03-23T07:41:01;7.97;;;3.97;;
65613;SDS011;52283;49.292;10.572;2024-03-23T07:43:29;10.18;;;4.82;;
65613;SDS011;52283;49.292;10.572;2024-03-23T07:45:54;11.32;;;4.35;;
65613;SDS011;52283;49.292;10.572;2024-03-23T07:48:22;6.75;;;3.72;;
65613;SDS011;52283;49.292;10.572;2024-03-23T07:50:55;6.65;;;3.90;;
65613;SDS011;52283;49.292;10.572;2024-03-23T07:53:23;10.13;;;4.88;;
65613;SDS011;52283;49.292;10.572;2024-03-23T07:55:52;7.95;;;5.38;;
65613;SDS011;52283;49.292;10.572;2024-03-23T07:58:20;4.28;;;3.17;;
65613;SDS011;52283;49.292;10.572;2024-03-23T08:00:45;5.53;;;2.92;;
65613;SDS011;52283;49.292;10.572;2024-03-23T08:03:11;3.40;;;2.13;;
65613;SDS011;52283;49.292;10.572;2024-03-23T08:05:38;5.45;;;3.08;;
65613;SDS011;52283;49.292;10.572;2024-03-23T08:08:05;6.38;;;2.70;;
65613;SDS011;52283;49.292;10.572;2024-03-23T08:10:31;6.47;;;3.15;;
65613;SDS011;52283;49.292;10.572;2024-03-23T08:12:57;5.10;;;2.85;;
65613;SDS011;52283;49.292;10.572;2024-03-23T08:15:23;4.68;;;2.63;;
65613;SDS011;52283;49.292;10.572;2024-03-23T08:17:49;4.70;;;2.80;;
65613;SDS011;52283;49.292;10.572;2024-03-23T08:20:15;5.25;;;2.70;;
65613;SDS011;52283;49.292;10.572;2024-03-23T08:22:43;4.95;;;2.35;;
65613;SDS011;52283;49.292;10.572;2024-03-23T08:25:08;3.53;;;2.00;;
65613;SDS011;52283;49.292;10.572;2024-03-23T08:27:38;3.40;;;1.85;;
65613;SDS011;52283;49.292;10.572;2024-03-23T08:30:04;2.70;;;1.98;;
65613;SDS011;52283;49.292;10.572;2024-03-23T08:32:32;4.32;;;2.47;;
65613;SDS011;52283;49.292;10.572;2024-03-23T08:34:57;2.17;;;1.92;;
65613;SDS011;52283;49.292;10.572;2024-03-23T08:37:24;6.85;;;2.85;;
65613;SDS011;52283;49.292;10.572;2024-03-23T08:39:52;2.65;;;2.05;;
65613;SDS011;52283;49.292;10.572;2024-03-23T08:42:18;3.17;;;2.88;;
65613;SDS011;52283;49.292;10.572;2024-03-23T08:44:44;4.43;;;2.55;;
65613;SDS011;52283;49.292;10.572;2024-03-23T08:47:14;2.63;;;2.38;;
65613;SDS011;52283;49.292;10.572;2024-03-23T08:49:40;3.40;;;2.42;;
65613;SDS011;52283;49.292;10.572;2024-03-23T08:52:06;1.92;;;1.75;;
65613;SDS011;52283;49.292;10.572;2024-03-23T08:54:32;2.97;;;2.67;;
65613;SDS011;52283;49.292;10.572;2024-03-23T08:57:00;3.53;;;3.22;;
65613;SDS011;52283;49.292;10.572;2024-03-23T08:59:26;4.05;;;2.70;;
65613;SDS011;52283;49.292;10.572;2024-03-23T09:01:52;2.90;;;2.45;;
65613;SDS011;52283;49.292;10.572;2024-03-23T09:04:18;3.08;;;2.78;;
65613;SDS011;52283;49.292;10.572;2024-03-23T09:06:44;2.95;;;2.67;;
65613;SDS011;52283;49.292;10.572;2024-03-23T09:09:10;2.90;;;2.70;;
65613;SDS011;52283;49.292;10.572;2024-03-23T09:11:36;3.85;;;2.88;;
65613;SDS011;52283;49.292;10.572;2024-03-23T09:14:04;2.40;;;2.22;;
65613;SDS011;52283;49.292;10.572;2024-03-23T09:16:30;2.35;;;2.03;;
65613;SDS011;52283;49.292;10.572;2024-03-23T09:18:55;2.60;;;2.05;;
65613;SDS011;52283;49.292;10.572;2024-03-23T09:21:22;1.83;;;1.73;;
65613;SDS011;52283;49.292;10.572;2024-03-23T09:23:47;1.90;;;1.75;;
65613;SDS011;52283;49.292;10.572;2024-03-23T09:26:14;2.70;;;2.50;;
65613;SDS011;52283;49.292;10.572;2024-03-23T09:28:39;1.88;;;1.60;;
65613;SDS011;52283;49.292;10.572;2024-03-23T09:31:08;4.20;;;1.40;;
65613;SDS011;52283;49.292;10.572;2024-03-23T09:33:35;1.33;;;1.10;;
65613;SDS011;52283;49.292;10.572;2024-03-23T09:36:02;1.35;;;0.90;;
65613;SDS011;52283;49.292;10.572;2024-03-23T09:38:28;1.10;;;0.80;;
65613;SDS011;52283;49.292;10.572;2024-03-23T09:40:55;1.63;;;1.13;;
65613;SDS011;52283;49.292;10.572;2024-03-23T09:43:22;1.25;;;1.13;;
65613;SDS011;52283;49.292;10.572;2024-03-23T09:45:48;1.48;;;1.30;;
65613;SDS011;52283;49.292;10.572;2024-03-23T09:48:16;0.90;;;0.90;;
65613;SDS011;52283;49.292;10.572;2024-03-23T09:50:43;1.23;;;1.05;;
65613;SDS011;52283;49.292;10.572;2024-03-23T09:53:10;1.13;;;1.02;;
65613;SDS011;52283;49.292;10.572;2024-03-23T09:55:37;1.42;;;1.33;;
65613;SDS011;52283;49.292;10.572;2024-03-23T09:58:04;1.25;;;1.15;;
65613;SDS011;52283;49.292;10.572;2024-03-23T10:00:31;1.30;;;1.20;;
65613;SDS011;52283;49.292;10.572;2024-03-23T10:02:57;0.93;;;0.93;;
65613;SDS011;52283;49.292;10.572;2024-03-23T10:05:28;0.70;;;0.70;;
65613;SDS011;52283;49.292;10.572;2024-03-23T10:07:54;2.72;;;1.73;;
65613;SDS011;52283;49.292;10.572;2024-03-23T10:10:21;3.17;;;1.70;;
65613;SDS011;52283;49.292;10.572;2024-03-23T10:12:47;3.95;;;1.92;;
65613;SDS011;52283;49.292;10.572;2024-03-23T10:15:17;1.90;;;1.20;;
65613;SDS011;52283;49.292;10.572;2024-03-23T10:17:44;1.42;;;1.10;;
65613;SDS011;52283;49.292;10.572;2024-03-23T10:20:10;0.65;;;0.65;;
65613;SDS011;52283;49.292;10.572;2024-03-23T10:22:38;1.65;;;1.17;;
65613;SDS011;52283;49.292;10.572;2024-03-23T10:25:08;1.77;;;0.80;;
65613;SDS011;52283;49.292;10.572;2024-03-23T10:27:34;1.60;;;1.08;;
65613;SDS011;52283;49.292;10.572;2024-03-23T10:30:07;1.77;;;1.67;;
65613;SDS011;52283;49.292;10.572;2024-03-23T10:32:34;1.02;;;0.95;;
65613;SDS011;52283;49.292;10.572;2024-03-23T10:35:13;0.93;;;0.90;;
65613;SDS011;52283;49.292;10.572;2024-03-23T10:37:40;1.20;;;1.10;;
65613;SDS011;52283;49.292;10.572;2024-03-23T10:40:09;3.55;;;0.90;;
65613;SDS011;52283;49.292;10.572;2024-03-23T10:42:37;0.95;;;0.90;;
65613;SDS011;52283;49.292;10.572;2024-03-23T10:45:04;2.22;;;1.27;;
65613;SDS011;52283;49.292;10.572;2024-03-23T10:47:31;1.63;;;1.20;;
65613;SDS011;52283;49.292;10.572;2024-03-23T10:49:58;2.08;;;1.25;;
65613;SDS011;52283;49.292;10.572;2024-03-23T10:52:23;4.57;;;1.15;;
65613;SDS011;52283;49.292;10.572;2024-03-23T10:54:51;2.05;;;1.10;;
65613;SDS011;52283;49.292;10.572;2024-03-23T10:57:17;1.58;;;0.90;;
65613;SDS011;52283;49.292;10.572;2024-03-23T10:59:46;2.42;;;1.30;;
65613;SDS011;52283;49.292;10.572;2024-03-23T11:02:18;2.70;;;1.13;;
65613;SDS011;52283;49.292;10.572;2024-03-23T11:04:45;1.88;;;1.20;;
65613;SDS011;52283;49.292;10.572;2024-03-23T11:07:29;1.73;;;1.13;;
65613;SDS011;52283;49.292;10.572;2024-03-23T11:09:58;1.58;;;1.10;;
65613;SDS011;52283;49.292;10.572;2024-03-23T11:12:28;2.58;;;1.48;;
65613;SDS011;52283;49.292;10.572;2024-03-23T11:15:00;4.57;;;2.40;;
65613;SDS011;52283;49.292;10.572;2024-03-23T11:17:27;3.25;;;1.55;;
65613;SDS011;52283;49.292;10.572;2024-03-23T11:19:54;2.63;;;1.40;;
65613;SDS011;52283;49.292;10.572;2024-03-23T11:25:16;3.05;;;0.98;;
65613;SDS011;52283;49.292;10.572;2024-03-23T11:27:43;4.38;;;2.00;;
65613;SDS011;52283;49.292;10.572;2024-03-23T11:30:14;4.75;;;2.33;;
65613;SDS011;52283;49.292;10.572;2024-03-23T11:32:41;2.53;;;1.75;;
65613;SDS011;52283;49.292;10.572;2024-03-23T11:35:08;1.98;;;0.93;;
65613;SDS011;52283;49.292;10.572;2024-03-23T11:37:35;4.75;;;1.25;;
65613;SDS011;52283;49.292;10.572;2024-03-23T11:42:45;2.38;;;1.30;;
65613;SDS011;52283;49.292;10.572;2024-03-23T11:45:12;3.00;;;1.85;;
65613;SDS011;52283;49.292;10.572;2024-03-23T11:47:38;3.65;;;1.33;;
65613;SDS011;52283;49.292;10.572;2024-03-23T11:50:04;3.70;;;1.15;;
65613;SDS011;52283;49.292;10.572;2024-03-23T11:52:30;3.55;;;1.15;;
65613;SDS011;52283;49.292;10.572;2024-03-23T11:55:02;7.15;;;1.10;;
65613;SDS011;52283;49.292;10.572;2024-03-23T11:57:30;7.65;;;1.70;;
65613;SDS011;52283;49.292;10.572;2024-03-23T11:59:56;5.47;;;1.88;;
65613;SDS011;52283;49.292;10.572;2024-03-23T12:02:22;3.28;;;1.63;;
65613;SDS011;52283;49.292;10.572;2024-03-23T12:04:49;4.65;;;1.45;;
65613;SDS011;52283;49.292;10.572;2024-03-23T12:07:15;4.20;;;1.25;;
65613;SDS011;52283;49.292;10.572;2024-03-23T12:09:43;4.75;;;1.27;;
65613;SDS011;52283;49.292;10.572;2024-03-23T12:12:13;4.78;;;1.75;;
65613;SDS011;52283;49.292;10.572;2024-03-23T12:14:42;3.13;;;1.37;;
65613;SDS011;52283;49.292;10.572;2024-03-23T12:17:09;4.65;;;2.00;;
65613;SDS011;52283;49.292;10.572;2024-03-23T12:19:36;3.00;;;1.00;;
65613;SDS011;52283;49.292;10.572;2024-03-23T12:22:02;3.28;;;1.42;;
65613;SDS011;52283;49.292;10.572;2024-03-23T12:24:29;6.05;;;2.38;;
65613;SDS011;52283;49.292;10.572;2024-03-23T12:26:55;4.80;;;1.92;;
65613;SDS011;52283;49.292;10.572;2024-03-23T12:29:26;4.10;;;1.35;;
65613;SDS011;52283;49.292;10.572;2024-03-23T12:31:53;3.17;;;1.52;;
65613;SDS011;52283;49.292;10.572;2024-03-23T12:34:21;4.72;;;1.40;;
65613;SDS011;52283;49.292;10.572;2024-03-23T12:36:46;4.07;;;1.17;;
65613;SDS011;52283;49.292;10.572;2024-03-23T12:39:13;9.73;;;1.10;;
65613;SDS011;52283;49.292;10.572;2024-03-23T12:41:38;5.43;;;1.92;;
65613;SDS011;52283;49.292;10.572;2024-03-23T12:44:05;6.00;;;1.63;;
65613;SDS011;52283;49.292;10.572;2024-03-23T12:46:30;8.15;;;1.35;;
65613;SDS011;52283;49.292;10.572;2024-03-23T12:48:58;3.20;;;0.93;;
65613;SDS011;52283;49.292;10.572;2024-03-23T12:51:24;5.63;;;1.92;;
65613;SDS011;52283;49.292;10.572;2024-03-23T12:53:51;6.60;;;1.65;;
65613;SDS011;52283;49.292;10.572;2024-03-23T12:56:16;3.33;;;1.20;;
65613;SDS011;52283;49.292;10.572;2024-03-23T12:58:43;11.15;;;1.73;;
65613;SDS011;52283;49.292;10.572;2024-03-23T13:01:09;2.80;;;1.10;;
65613;SDS011;52283;49.292;10.572;2024-03-23T13:03:35;7.15;;;1.10;;
65613;SDS011;52283;49.292;10.572;2024-03-23T13:06:02;4.70;;;1.80;;
65613;SDS011;52283;49.292;10.572;2024-03-23T13:08:32;10.07;;;1.92;;
65613;SDS011;52283;49.292;10.572;2024-03-23T13:10:58;3.55;;;1.45;;
65613;SDS011;52283;49.292;10.572;2024-03-23T13:13:24;6.45;;;1.10;;
65613;SDS011;52283;49.292;10.572;2024-03-23T13:15:50;2.08;;;1.00;;
65613;SDS011;52283;49.292;10.572;2024-03-23T13:18:16;3.95;;;1.17;;
65613;SDS011;52283;49.292;10.572;2024-03-23T13:20:42;8.32;;;1.27;;
65613;SDS011;52283;49.292;10.572;2024-03-23T13:23:10;4.68;;;1.10;;
65613;SDS011;52283;49.292;10.572;2024-03-23T13:25:35;6.70;;;0.90;;
65613;SDS011;52283;49.292;10.572;2024-03-23T13:28:02;5.07;;;1.10;;
65613;SDS011;52283;49.292;10.572;2024-03-23T13:30:28;2.13;;;0.90;;
65613;SDS011;52283;49.292;10.572;2024-03-23T13:32:55;6.18;;;1.27;;
65613;SDS011;52283;49.292;10.572;2024-03-23T13:35:20;5.85;;;1.77;;
65613;SDS011;52283;49.292;10.572;2024-03-23T13:37:47;3.28;;;1.08;;
65613;SDS011;52283;49.292;10.572;2024-03-23T13:40:15;5.72;;;1.23;;
65613;SDS011;52283;49.292;10.572;2024-03-23T13:42:41;3.05;;;0.88;;
65613;SDS011;52283;49.292;10.572;2024-03-23T13:45:07;7.47;;;1.55;;
65613;SDS011;52283;49.292;10.572;2024-03-23T13:47:36;5.80;;;1.02;;
65613;SDS011;52283;49.292;10.572;2024-03-23T13:50:02;6.20;;;1.52;;
65613;SDS011;52283;49.292;10.572;2024-03-23T13:52:29;17.95;;;5.68;;
65613;SDS011;52283;49.292;10.572;2024-03-23T13:54:56;6.15;;;2.30;;
65613;SDS011;52283;49.292;10.572;2024-03-23T13:57:24;4.32;;;1.13;;
65613;SDS011;52283;49.292;10.572;2024-03-23T13:59:51;15.90;;;1.65;;
65613;SDS011;52283;49.292;10.572;2024-03-23T14:02:17;7.20;;;1.58;;
65613;SDS011;52283;49.292;10.572;2024-03-23T14:04:43;7.25;;;1.70;;
65613;SDS011;52283;49.292;10.572;2024-03-23T14:07:09;4.35;;;1.50;;
65613;SDS011;52283;49.292;10.572;2024-03-23T14:09:35;5.07;;;1.35;;
65613;SDS011;52283;49.292;10.572;2024-03-23T14:12:02;1.58;;;0.98;;
65613;SDS011;52283;49.292;10.572;2024-03-23T14:14:29;8.02;;;1.30;;
65613;SDS011;52283;49.292;10.572;2024-03-23T14:16:55;7.22;;;1.90;;
65613;SDS011;52283;49.292;10.572;2024-03-23T14:19:21;7.20;;;2.13;;
65613;SDS011;52283;49.292;10.572;2024-03-23T14:21:47;4.85;;;1.85;;
65613;SDS011;52283;49.292;10.572;2024-03-23T14:24:13;7.82;;;2.20;;
65613;SDS011;52283;49.292;10.572;2024-03-23T14:26:39;4.45;;;1.33;;
65613;SDS011;52283;49.292;10.572;2024-03-23T14:29:06;3.40;;;1.48;;
65613;SDS011;52283;49.292;10.572;2024-03-23T14:31:35;4.20;;;1.38;;
65613;SDS011;52283;49.292;10.572;2024-03-23T14:34:02;6.97;;;2.30;;
65613;SDS011;52283;49.292;10.572;2024-03-23T14:36:27;2.75;;;1.15;;
65613;SDS011;52283;49.292;10.572;2024-03-23T14:38:54;3.25;;;1.20;;
65613;SDS011;52283;49.292;10.572;2024-03-23T14:41:19;6.35;;;1.20;;
65613;SDS011;52283;49.292;10.572;2024-03-23T14:43:45;7.70;;;2.22;;
65613;SDS011;52283;49.292;10.572;2024-03-23T14:46:13;7.03;;;1.40;;
65613;SDS011;52283;49.292;10.572;2024-03-23T14:48:42;2.63;;;1.30;;
65613;SDS011;52283;49.292;10.572;2024-03-23T14:51:09;8.40;;;2.28;;
65613;SDS011;52283;49.292;10.572;2024-03-23T14:53:37;5.38;;;2.00;;
65613;SDS011;52283;49.292;10.572;2024-03-23T14:56:05;6.90;;;2.47;;
65613;SDS011;52283;49.292;10.572;2024-03-23T14:58:32;7.45;;;2.63;;
65613;SDS011;52283;49.292;10.572;2024-03-23T15:01:00;6.50;;;2.55;;
65613;SDS011;52283;49.292;10.572;2024-03-23T15:03:27;3.55;;;2.00;;
65613;SDS011;52283;49.292;10.572;2024-03-23T15:05:54;4.80;;;2.17;;
65613;SDS011;52283;49.292;10.572;2024-03-23T15:08:22;4.38;;;1.05;;
65613;SDS011;52283;49.292;10.572;2024-03-23T15:10:47;2.03;;;1.40;;
65613;SDS011;52283;49.292;10.572;2024-03-23T15:13:14;3.88;;;1.90;;
65613;SDS011;52283;49.292;10.572;2024-03-23T15:15:40;2.35;;;1.30;;
65613;SDS011;52283;49.292;10.572;2024-03-23T15:18:09;3.95;;;2.03;;
65613;SDS011;52283;49.292;10.572;2024-03-23T15:20:35;4.15;;;2.13;;
65613;SDS011;52283;49.292;10.572;2024-03-23T15:23:03;5.45;;;1.98;;
65613;SDS011;52283;49.292;10.572;2024-03-23T15:25:28;1.80;;;1.23;;
65613;SDS011;52283;49.292;10.572;2024-03-23T15:27:56;8.63;;;1.73;;